YOMO weather

Omeo Airport
Victoria, Australia

Public forecast

Using degrees Celsius for public forecast. Weather courtesy of forecast.io.

Closest aviation weather report (METAR) to Omeo Airport

Closest report is Albury Airport, 68.9 nm (127.7 km) NNW. Retrieved 2019/12/07 06:00 UTC (18 minutes ago):

YMAY 070600Z AUTO 26015KT 9999 // NCD 27/02 Q1012

Closest aviation forecast (TAF) to Omeo Airport

Closest forecast is Wangaratta Airport, 74.1 nm (137.3 km) WNW. Retrieved 2019-12-07 02:33 UTC (4 hours ago):

TAF TAF YWGT 070103Z 0702/0714 23014KT CAVOK FM070800 20008KT CAVOK